createdAt,value
2022-10-05T00:00:18.340Z,101624.50
2022-10-05T00:02:46.612Z,101624.66
2022-10-05T00:05:33.265Z,101618.66
2022-10-05T00:08:11.887Z,101618.50
2022-10-05T00:10:41.359Z,101613.16
2022-10-05T00:13:19.937Z,101612.38
2022-10-05T00:15:47.212Z,101610.72
2022-10-05T00:18:19.643Z,101614.25
2022-10-05T00:20:47.781Z,101612.44
2022-10-05T00:23:34.802Z,101608.94
2022-10-05T00:26:09.132Z,101612.53
2022-10-05T00:28:36.298Z,101608.19
2022-10-05T00:31:03.171Z,101614.69
2022-10-05T00:33:30.118Z,101624.41
2022-10-05T00:35:56.892Z,101619.41
2022-10-05T00:38:23.738Z,101628.03
2022-10-05T00:41:07.486Z,101616.50
2022-10-05T00:43:52.416Z,101615.81
2022-10-05T00:46:38.633Z,101614.03
2022-10-05T00:49:40.241Z,101626.63
2022-10-05T00:52:22.923Z,101628.41
2022-10-05T00:55:05.976Z,101623.97
2022-10-05T00:58:13.247Z,101625.88
2022-10-05T01:01:02.807Z,101632.28
2022-10-05T01:03:38.432Z,101635.03
2022-10-05T01:06:23.884Z,101642.66
2022-10-05T01:09:02.675Z,101644.31
2022-10-05T01:12:04.167Z,101644.16
2022-10-05T01:14:58.715Z,101637.91
2022-10-05T01:17:32.078Z,101632.72
2022-10-05T01:20:10.745Z,101635.25
2022-10-05T01:22:54.755Z,101637.19
2022-10-05T01:26:08.373Z,101644.31
2022-10-05T01:28:41.505Z,101648.91
2022-10-05T01:31:26.754Z,101639.97
2022-10-05T01:34:22.307Z,101643.50
2022-10-05T01:37:15.594Z,101638.19
2022-10-05T01:40:03.533Z,101632.03
2022-10-05T01:42:36.621Z,101631.16
2022-10-05T01:45:09.596Z,101638.28
2022-10-05T01:47:51.398Z,101641.97
2022-10-05T01:50:44.689Z,101639.44
2022-10-05T01:53:41.468Z,101646.50
2022-10-05T01:56:26.441Z,101654.47
2022-10-05T01:59:18.919Z,101653.53
2022-10-05T02:01:56.419Z,101657.06
2022-10-05T02:05:00.338Z,101652.59
2022-10-05T02:07:27.713Z,101649.91
2022-10-05T02:10:01.107Z,101655.47
2022-10-05T02:12:32.972Z,101646.56
2022-10-05T02:15:07.323Z,101661.44
2022-10-05T02:17:42.412Z,101667.69
2022-10-05T02:20:12.006Z,101661.59
2022-10-05T02:23:02.316Z,101665.03
2022-10-05T02:25:41.375Z,101666.75
2022-10-05T02:28:12.977Z,101662.22
2022-10-05T02:30:44.868Z,101665.75
2022-10-05T02:33:21.632Z,101665.97
2022-10-05T02:35:48.464Z,101658.91
2022-10-05T02:38:54.385Z,101668.75
2022-10-05T02:41:21.144Z,101671.66
2022-10-05T02:44:02.262Z,101680.63
2022-10-05T02:46:46.603Z,101674.37
2022-10-05T02:49:55.084Z,101672.56
2022-10-05T02:52:23.101Z,101675.13
2022-10-05T02:55:15.871Z,101675.97
2022-10-05T02:57:48.020Z,101672.38
2022-10-05T03:00:17.152Z,101667.06
2022-10-05T03:02:58.699Z,101666.25
2022-10-05T03:05:30.857Z,101660.94
2022-10-05T03:08:02.322Z,101657.56
2022-10-05T03:10:34.328Z,101654.97
2022-10-05T03:13:07.156Z,101662.09
2022-10-05T03:15:37.041Z,101656.00
2022-10-05T03:18:03.951Z,101659.53
2022-10-05T03:20:33.567Z,101658.94
2022-10-05T03:23:02.162Z,101657.13
2022-10-05T03:25:38.851Z,101663.38
2022-10-05T03:28:27.245Z,101662.56
2022-10-05T03:31:06.588Z,101671.63
2022-10-05T03:33:47.274Z,101674.16
2022-10-05T03:36:32.887Z,101666.19
2022-10-05T03:39:19.219Z,101670.87
2022-10-05T03:42:15.502Z,101686.97
2022-10-05T03:44:53.458Z,101683.56
2022-10-05T03:47:26.104Z,101684.19
2022-10-05T03:50:13.257Z,101680.72
2022-10-05T03:52:45.744Z,101693.19
2022-10-05T03:55:30.842Z,101689.69
2022-10-05T03:58:00.269Z,101685.06
2022-10-05T04:00:30.109Z,101689.44
2022-10-05T04:03:16.986Z,101687.78
2022-10-05T04:05:48.915Z,101685.13
2022-10-05T04:08:48.373Z,101693.16
2022-10-05T04:11:29.756Z,101689.56
2022-10-05T04:14:01.201Z,101684.19
2022-10-05T04:16:39.817Z,101692.22
2022-10-05T04:19:32.124Z,101686.91
2022-10-05T04:22:07.038Z,101682.66
2022-10-05T04:24:40.897Z,101686.16
2022-10-05T04:27:09.468Z,101680.84
2022-10-05T04:30:05.205Z,101669.34
2022-10-05T04:32:42.723Z,101658.75
2022-10-05T04:35:31.213Z,101667.63
2022-10-05T04:48:10.566Z,101663.31
2022-10-05T04:50:53.279Z,101663.31
2022-10-05T04:53:40.336Z,101677.31
2022-10-05T04:56:10.856Z,101673.69
2022-10-05T04:58:44.390Z,101680.97
2022-10-05T05:01:32.412Z,101675.47
2022-10-05T05:04:20.853Z,101685.97
2022-10-05T05:07:11.846Z,101686.75
2022-10-05T05:10:12.710Z,101678.59
2022-10-05T05:13:04.690Z,101688.97
2022-10-05T05:16:39.258Z,101668.88
2022-10-05T05:19:30.736Z,101687.87
2022-10-05T05:22:04.034Z,101696.53
2022-10-05T05:24:52.981Z,101697.53
2022-10-05T05:27:42.513Z,101712.50
2022-10-05T05:30:34.863Z,101705.09
2022-10-05T05:33:19.556Z,101717.47
2022-10-05T05:35:52.434Z,101724.38
2022-10-05T05:38:33.833Z,101724.09
2022-10-05T05:41:03.403Z,101727.91
2022-10-05T05:43:43.853Z,101733.78
2022-10-05T05:46:17.591Z,101747.59
2022-10-05T05:48:46.747Z,101745.31
2022-10-05T05:51:23.338Z,101747.81
2022-10-05T05:53:57.261Z,101760.28
2022-10-05T05:56:37.782Z,101758.44
2022-10-05T05:59:15.745Z,101773.34
2022-10-05T06:01:48.989Z,101782.03
2022-10-05T06:04:31.535Z,101786.84
2022-10-05T06:07:01.436Z,101791.78
2022-10-05T06:09:50.504Z,101787.09
2022-10-05T06:12:34.800Z,101781.09
2022-10-05T06:15:23.718Z,101770.91
2022-10-05T06:17:54.679Z,101766.53
2022-10-05T06:20:40.787Z,101778.31
2022-10-05T06:23:18.427Z,101776.22
2022-10-05T06:26:18.404Z,101783.09
2022-10-05T06:29:17.880Z,101782.44
2022-10-05T06:32:09.910Z,101788.31
2022-10-05T06:35:07.850Z,101804.66
2022-10-05T06:38:00.548Z,101794.12
2022-10-05T06:40:29.286Z,101805.12
2022-10-05T06:43:03.216Z,101822.12
2022-10-05T06:45:53.095Z,101815.31
2022-10-05T06:48:44.400Z,101829.63
2022-10-05T06:51:23.383Z,101828.03
2022-10-05T06:54:15.193Z,101818.09
2022-10-05T06:56:55.824Z,101806.41
2022-10-05T06:59:53.146Z,101806.03
2022-10-05T07:02:36.711Z,101815.03
2022-10-05T07:05:28.251Z,101817.81
2022-10-05T07:08:06.904Z,101820.97
2022-10-05T07:10:42.667Z,101824.66
2022-10-05T07:13:37.555Z,101826.53
2022-10-05T07:16:13.048Z,101819.78
2022-10-05T07:19:01.372Z,101821.44
2022-10-05T07:22:00.433Z,101819.06
2022-10-05T07:24:36.763Z,101822.09
2022-10-05T07:27:15.745Z,101822.78
2022-10-05T07:29:48.337Z,101816.81
2022-10-05T07:32:39.536Z,101802.69
2022-10-05T07:35:06.306Z,101798.72
2022-10-05T07:37:57.952Z,101778.69
2022-10-05T07:40:36.693Z,101794.22
2022-10-05T07:43:21.853Z,101786.63
2022-10-05T07:45:59.835Z,101797.03
2022-10-05T07:48:46.177Z,101809.63
2022-10-05T07:51:54.633Z,101797.16
2022-10-05T07:54:30.272Z,101787.25
2022-10-05T07:57:10.067Z,101771.63
2022-10-05T07:59:54.787Z,101759.09
2022-10-05T08:02:34.650Z,101763.91
2022-10-05T08:05:19.023Z,101751.47
2022-10-05T08:07:46.080Z,101737.19
2022-10-05T08:10:22.038Z,101732.38
2022-10-05T08:13:18.499Z,101725.59
2022-10-05T08:15:48.514Z,101715.97
2022-10-05T08:18:38.088Z,101714.84
2022-10-05T08:21:11.771Z,101697.66
2022-10-05T08:23:51.748Z,101716.31
2022-10-05T08:26:18.526Z,101723.69
2022-10-05T08:29:20.929Z,101715.53
2022-10-05T08:31:50.829Z,101711.31
2022-10-05T08:34:23.870Z,101722.00
2022-10-05T08:36:56.132Z,101737.81
2022-10-05T08:39:26.645Z,101746.88
2022-10-05T08:42:41.992Z,101730.66
2022-10-05T08:45:42.442Z,101732.31
2022-10-05T08:48:18.679Z,101712.63
2022-10-05T08:51:20.003Z,101726.72
2022-10-05T08:54:17.525Z,101723.56
2022-10-05T08:57:22.080Z,101731.97
2022-10-05T09:00:04.226Z,101729.75
2022-10-05T09:02:47.122Z,101732.59
2022-10-05T09:05:50.621Z,101720.16
2022-10-05T09:08:53.795Z,101697.19
2022-10-05T09:11:36.620Z,101714.81
2022-10-05T09:14:31.466Z,101706.34
2022-10-05T09:17:07.041Z,101688.75
2022-10-05T09:19:44.492Z,101693.59
2022-10-05T09:22:30.418Z,101675.50
2022-10-05T09:24:59.372Z,101678.59
2022-10-05T09:27:38.007Z,101674.81
2022-10-05T09:30:21.953Z,101657.72
2022-10-05T09:33:10.452Z,101661.97
2022-10-05T09:36:15.594Z,101671.19
2022-10-05T09:38:54.368Z,101642.66
2022-10-05T09:41:50.324Z,101657.66
2022-10-05T09:44:29.389Z,101664.00
2022-10-05T09:47:30.506Z,101675.59
2022-10-05T09:50:19.563Z,101662.94
2022-10-05T09:53:05.090Z,101639.56
2022-10-05T09:56:00.318Z,101641.91
2022-10-05T09:59:21.002Z,101649.12
2022-10-05T10:02:17.016Z,101644.13
2022-10-05T10:04:52.491Z,101645.94
2022-10-05T10:07:38.025Z,101641.03
2022-10-05T10:10:49.076Z,101640.75
2022-10-05T10:13:28.481Z,101633.72
2022-10-05T10:16:37.750Z,101617.81
2022-10-05T10:19:33.657Z,101628.28
2022-10-05T10:22:15.239Z,101627.69
2022-10-05T10:24:53.861Z,101620.72
2022-10-05T10:27:42.772Z,101633.87
2022-10-05T10:30:36.602Z,101626.69
2022-10-05T10:33:22.209Z,101634.63
2022-10-05T10:36:06.106Z,101629.44
2022-10-05T10:38:47.480Z,101600.72
2022-10-05T10:41:21.902Z,101634.22
2022-10-05T10:44:04.190Z,101647.94
2022-10-05T10:46:33.968Z,101637.13
2022-10-05T10:49:42.746Z,101632.53
2022-10-05T10:52:32.538Z,101625.00
2022-10-05T10:55:05.265Z,101628.78
2022-10-05T10:58:03.893Z,101631.00
2022-10-05T11:01:00.601Z,101614.34
2022-10-05T11:03:50.872Z,101634.00
2022-10-05T11:06:37.433Z,101625.09
2022-10-05T11:09:31.895Z,101629.78
2022-10-05T11:12:22.015Z,101609.75
2022-10-05T11:15:27.162Z,101612.81
2022-10-05T11:18:01.743Z,101594.62
2022-10-05T11:20:39.780Z,101601.81
2022-10-05T11:23:37.963Z,101603.50
2022-10-05T11:26:22.324Z,101601.62
2022-10-05T11:28:57.899Z,101584.53
2022-10-05T11:31:52.880Z,101595.81
2022-10-05T11:34:25.784Z,101575.50
2022-10-05T11:36:55.739Z,101571.31
2022-10-05T11:39:38.132Z,101571.06
2022-10-05T11:42:32.679Z,101553.59
2022-10-05T11:45:14.386Z,101546.56
2022-10-05T11:48:04.181Z,101556.69
2022-10-05T11:50:43.411Z,101544.38
2022-10-05T11:53:24.305Z,101556.94
2022-10-05T11:56:16.714Z,101552.53
2022-10-05T11:59:00.214Z,101532.41
2022-10-05T12:01:27.178Z,101546.41
2022-10-05T12:03:58.277Z,101553.50
2022-10-05T12:06:34.157Z,101558.69
2022-10-05T12:09:32.036Z,101560.00
2022-10-05T12:12:18.245Z,101558.50
2022-10-05T12:15:14.310Z,101554.94
2022-10-05T12:17:51.176Z,101572.59
2022-10-05T12:20:27.864Z,101552.81
2022-10-05T12:23:25.683Z,101549.63
2022-10-05T12:26:05.503Z,101551.59
2022-10-05T12:28:40.279Z,101558.31
2022-10-05T12:31:29.661Z,101562.00
2022-10-05T12:34:03.188Z,101560.16
2022-10-05T12:37:04.476Z,101557.34
2022-10-05T12:39:53.419Z,101557.22
2022-10-05T12:42:32.136Z,101554.66
2022-10-05T12:45:04.949Z,101555.50
2022-10-05T12:47:44.844Z,101581.34
2022-10-05T12:50:36.847Z,101578.63
2022-10-05T12:53:28.851Z,101579.00
2022-10-05T12:56:11.936Z,101575.44
2022-10-05T12:58:53.827Z,101583.94
2022-10-05T13:01:23.345Z,101580.38
2022-10-05T13:04:06.342Z,101575.19
2022-10-05T13:06:51.156Z,101576.78
2022-10-05T13:09:48.568Z,101578.50
2022-10-05T13:12:23.153Z,101581.94
2022-10-05T13:15:03.323Z,101572.47
2022-10-05T13:17:41.256Z,101576.16
2022-10-05T13:20:21.533Z,101591.34
2022-10-05T13:22:54.732Z,101588.44
2022-10-05T13:26:01.159Z,101597.97
2022-10-05T13:28:40.612Z,101592.28
2022-10-05T13:31:13.621Z,101601.94
2022-10-05T13:33:54.687Z,101607.59
2022-10-05T13:36:54.509Z,101612.81
2022-10-05T13:39:46.974Z,101607.47
2022-10-05T13:42:31.478Z,101609.81
2022-10-05T13:45:04.544Z,101602.16
2022-10-05T13:47:52.826Z,101613.28
2022-10-05T13:50:29.722Z,101619.81
2022-10-05T13:53:28.920Z,101618.97
2022-10-05T13:56:01.074Z,101620.91
2022-10-05T13:58:36.132Z,101617.69
2022-10-05T14:01:08.726Z,101617.94
2022-10-05T14:03:37.380Z,101623.13
2022-10-05T14:06:30.177Z,101630.03
2022-10-05T14:09:00.099Z,101624.84
2022-10-05T14:11:31.342Z,101624.44
2022-10-05T14:14:10.308Z,101619.03
2022-10-05T14:16:54.649Z,101630.66
2022-10-05T14:19:26.856Z,101632.78
2022-10-05T14:22:02.210Z,101629.41
2022-10-05T14:24:43.716Z,101625.97
2022-10-05T14:27:28.473Z,101622.44
2022-10-05T14:30:10.339Z,101633.50
2022-10-05T14:33:05.747Z,101629.16
2022-10-05T14:35:50.543Z,101618.78
2022-10-05T14:38:46.860Z,101615.41
2022-10-05T14:41:21.395Z,101616.34
2022-10-05T14:44:02.241Z,101613.00
2022-10-05T14:46:32.684Z,101608.66
2022-10-05T14:49:20.464Z,101600.41
2022-10-05T14:51:47.968Z,101618.22
2022-10-05T14:54:44.314Z,101615.59
2022-10-05T14:57:25.276Z,101615.31
2022-10-05T15:00:02.317Z,101589.31
2022-10-05T15:02:38.607Z,101604.19
2022-10-05T15:05:05.457Z,101609.06
2022-10-05T15:07:40.508Z,101621.78
2022-10-05T15:10:35.818Z,101615.84
2022-10-05T15:13:13.525Z,101625.16
2022-10-05T15:16:03.435Z,101617.25
2022-10-05T15:18:41.970Z,101612.59
2022-10-05T15:21:30.678Z,101610.00
2022-10-05T15:24:01.084Z,101610.47
2022-10-05T15:26:50.917Z,101605.47
2022-10-05T15:29:27.218Z,101622.28
2022-10-05T15:32:23.113Z,101616.09
2022-10-05T15:35:28.076Z,101624.88
2022-10-05T15:38:17.797Z,101619.97
2022-10-05T15:40:50.550Z,101617.94
2022-10-05T15:43:22.123Z,101628.84
2022-10-05T15:46:04.467Z,101625.56
2022-10-05T15:48:41.140Z,101632.28
2022-10-05T15:51:36.445Z,101637.03
2022-10-05T15:54:51.190Z,101628.78
2022-10-05T15:57:55.619Z,101635.91
2022-10-05T16:00:25.860Z,101640.25
2022-10-05T16:03:15.435Z,101638.16
2022-10-05T16:06:18.492Z,101643.28
2022-10-05T16:09:28.503Z,101644.03
2022-10-05T16:12:06.757Z,101636.81
2022-10-05T16:14:42.453Z,101631.91
2022-10-05T16:17:24.192Z,101630.47
2022-10-05T16:20:20.680Z,101635.56
2022-10-05T16:23:12.706Z,101637.41
2022-10-05T16:25:58.773Z,101642.56
2022-10-05T16:28:42.587Z,101651.06
2022-10-05T16:31:19.009Z,101661.22
2022-10-05T16:34:06.673Z,101675.38
2022-10-05T16:36:36.453Z,101676.63
2022-10-05T16:39:36.275Z,101671.69
2022-10-05T16:42:11.884Z,101669.56
2022-10-05T16:45:07.907Z,101675.47
2022-10-05T16:47:55.340Z,101677.94
2022-10-05T16:50:59.655Z,101687.47
2022-10-05T16:53:35.638Z,101684.28
2022-10-05T16:56:06.432Z,101692.88
2022-10-05T16:58:51.914Z,101691.88
2022-10-05T17:01:18.679Z,101698.63
2022-10-05T17:03:57.493Z,101696.19
2022-10-05T17:06:42.677Z,101700.09
2022-10-05T17:09:15.322Z,101697.84
2022-10-05T17:12:01.377Z,101695.69
2022-10-05T17:14:52.819Z,101692.47
2022-10-05T17:17:35.533Z,101691.97
2022-10-05T17:20:12.052Z,101695.09
2022-10-05T17:22:52.287Z,101697.34
2022-10-05T17:25:28.702Z,101705.00
2022-10-05T17:28:22.498Z,101706.47
2022-10-05T17:30:58.625Z,101705.06
2022-10-05T17:33:30.648Z,101699.22
2022-10-05T17:36:04.799Z,101696.78
2022-10-05T17:38:33.292Z,101695.38
2022-10-05T17:41:00.236Z,101702.09
2022-10-05T17:43:28.551Z,101700.72
2022-10-05T17:46:00.781Z,101696.53
2022-10-05T17:48:40.778Z,101709.41
2022-10-05T17:51:48.701Z,101708.81
2022-10-05T17:55:05.322Z,101705.31
2022-10-05T17:57:33.993Z,101704.00
2022-10-05T18:00:02.561Z,101701.47
2022-10-05T18:02:38.478Z,101703.44
2022-10-05T18:05:16.117Z,101703.03
2022-10-05T18:07:48.232Z,101709.75
2022-10-05T18:10:29.045Z,101705.28
2022-10-05T18:12:59.100Z,101700.22
2022-10-05T18:15:25.918Z,101705.88
2022-10-05T18:17:57.161Z,101700.41
2022-10-05T18:20:24.007Z,101702.88
2022-10-05T18:22:52.925Z,101704.44
2022-10-05T18:25:29.471Z,101705.31
2022-10-05T18:28:33.844Z,101703.63
2022-10-05T18:31:04.320Z,101698.25
2022-10-05T18:33:34.092Z,101705.06
2022-10-05T18:36:09.840Z,101699.03
2022-10-05T18:38:55.211Z,101700.03
2022-10-05T18:41:31.910Z,101695.06
2022-10-05T18:44:42.611Z,101683.44
2022-10-05T18:47:18.414Z,101690.69
2022-10-05T18:50:29.063Z,101686.34
2022-10-05T18:53:16.963Z,101704.63
2022-10-05T18:56:02.877Z,101703.03
2022-10-05T18:58:59.383Z,101695.19
2022-10-05T19:01:41.246Z,101708.84
2022-10-05T19:04:23.799Z,101709.28
2022-10-05T19:07:04.899Z,101707.38
2022-10-05T19:09:41.053Z,101705.66
2022-10-05T19:12:23.934Z,101697.87
2022-10-05T19:15:09.540Z,101700.44
2022-10-05T19:17:58.652Z,101706.88
2022-10-05T19:20:37.257Z,101708.13
2022-10-05T19:23:09.317Z,101710.78
2022-10-05T19:25:51.117Z,101699.03
2022-10-05T19:28:28.693Z,101713.56
2022-10-05T19:31:04.816Z,101710.22
2022-10-05T19:34:22.172Z,101717.28
2022-10-05T19:36:51.665Z,101713.91
2022-10-05T19:39:31.326Z,101717.47
2022-10-05T19:42:27.328Z,101723.25
2022-10-05T19:44:57.080Z,101730.59
2022-10-05T19:47:28.279Z,101737.84
2022-10-05T19:49:57.660Z,101735.81
2022-10-05T19:52:31.028Z,101737.56
2022-10-05T19:55:04.683Z,101733.91
2022-10-05T19:57:31.855Z,101738.44
2022-10-05T19:59:59.764Z,101743.88
2022-10-05T20:02:27.943Z,101743.00
2022-10-05T20:05:06.445Z,101735.09
2022-10-05T20:07:34.368Z,101738.13
2022-10-05T20:10:29.191Z,101737.12
2022-10-05T20:13:01.061Z,101747.00
2022-10-05T20:15:53.882Z,101750.59
2022-10-05T20:19:01.391Z,101754.38
2022-10-05T20:21:40.358Z,101753.38
2022-10-05T20:24:15.922Z,101751.47
2022-10-05T20:27:05.483Z,101760.31
2022-10-05T20:29:40.544Z,101763.97
2022-10-05T20:32:16.007Z,101765.78
2022-10-05T20:34:46.816Z,101772.06
2022-10-05T20:37:15.919Z,101761.59
2022-10-05T20:39:43.613Z,101759.06
2022-10-05T20:42:11.088Z,101767.25
2022-10-05T20:44:38.328Z,101765.56
2022-10-05T20:47:08.757Z,101764.69
2022-10-05T20:49:37.091Z,101755.69
2022-10-05T20:52:04.647Z,101757.47
2022-10-05T20:54:31.998Z,101761.06
2022-10-05T20:56:58.858Z,101753.91
2022-10-05T20:59:26.274Z,101762.09
2022-10-05T21:01:53.043Z,101756.88
2022-10-05T21:04:22.241Z,101755.06
2022-10-05T21:06:49.300Z,101759.47
2022-10-05T21:09:19.528Z,101759.47
2022-10-05T21:11:47.853Z,101758.59
2022-10-05T21:14:14.917Z,101762.28
2022-10-05T21:16:42.942Z,101761.41
2022-10-05T21:19:12.332Z,101756.91
2022-10-05T21:21:40.285Z,101751.69
2022-10-05T21:24:08.507Z,101749.00
2022-10-05T21:26:37.247Z,101750.88
2022-10-05T21:29:08.935Z,101750.09
2022-10-05T21:31:39.231Z,101749.53
2022-10-05T21:34:06.556Z,101746.50
2022-10-05T21:36:34.143Z,101747.41
2022-10-05T21:39:01.729Z,101763.34
2022-10-05T21:41:29.068Z,101755.50
2022-10-05T21:43:56.308Z,101758.38
2022-10-05T21:46:26.744Z,101746.88
2022-10-05T21:48:54.909Z,101746.03
2022-10-05T21:51:24.773Z,101747.75
2022-10-05T21:54:03.796Z,101743.56
2022-10-05T21:56:35.055Z,101747.09
2022-10-05T21:59:05.098Z,101747.50
2022-10-05T22:01:32.448Z,101739.88
2022-10-05T22:03:59.343Z,101744.44
2022-10-05T22:06:26.470Z,101746.81
2022-10-05T22:08:53.623Z,101743.19
2022-10-05T22:11:20.784Z,101731.72
2022-10-05T22:13:52.726Z,101743.19
2022-10-05T22:16:22.032Z,101735.06
2022-10-05T22:18:49.634Z,101740.25
2022-10-05T22:21:16.838Z,101732.19
2022-10-05T22:23:45.918Z,101728.56
2022-10-05T22:26:15.973Z,101725.97
2022-10-05T22:28:43.683Z,101728.69
2022-10-05T22:31:12.511Z,101717.94
2022-10-05T22:33:39.550Z,101719.75
2022-10-05T22:36:07.646Z,101713.69
2022-10-05T22:38:34.817Z,101722.47
2022-10-05T22:41:01.712Z,101716.28
2022-10-05T22:43:28.981Z,101710.25
2022-10-05T22:45:56.261Z,101712.00
2022-10-05T22:48:23.284Z,101710.44
2022-10-05T22:50:50.266Z,101721.34
2022-10-05T22:53:17.379Z,101713.78
2022-10-05T22:59:25.921Z,101711.84
2022-10-05T23:01:52.889Z,101716.50
2022-10-05T23:04:19.826Z,101710.00
2022-10-05T23:06:46.706Z,101706.09
2022-10-05T23:09:13.942Z,101718.50
2022-10-05T23:11:41.554Z,101719.59
2022-10-05T23:14:08.433Z,101721.00
2022-10-05T23:16:35.324Z,101716.28
2022-10-05T23:19:03.079Z,101718.28
2022-10-05T23:21:30.632Z,101710.00
2022-10-05T23:23:57.430Z,101710.12
2022-10-05T23:26:25.122Z,101714.59
2022-10-05T23:28:52.684Z,101699.78
2022-10-05T23:31:22.314Z,101716.34
2022-10-05T23:33:49.342Z,101717.09
2022-10-05T23:36:19.457Z,101715.34
2022-10-05T23:38:46.669Z,101693.28
2022-10-05T23:41:13.980Z,101706.34
2022-10-05T23:43:40.804Z,101707.13
2022-10-05T23:46:07.970Z,101707.13
2022-10-05T23:48:37.965Z,101716.09
2022-10-05T23:51:06.700Z,101711.75
2022-10-05T23:53:33.675Z,101709.22
2022-10-05T23:56:00.559Z,101719.06
2022-10-05T23:58:27.764Z,101721.72
